Time;durP1;ratioP1;P1;durP2;ratioP2;P2;SDS_P1;SDS_P2;PMS_P1;PMS_P2;Temp;Humidity;BMP_temperature;BMP_pressure;BME280_temperature;BME280_humidity;BME280_pressure;Samples;Min_cycle;Max_cycle;Signal;HPM_P1;HPM_P2
2022/05/19 00:01:05;;;;;;;4.33;3.93;;;15.50;99.90;;;;;;5071631;28;20549;-70
2022/05/19 00:03:33;;;;;;;4.30;3.90;;;15.50;99.90;;;;;;5071642;28;20989;-70
2022/05/19 00:06:00;;;;;;;4.03;3.17;;;15.40;99.90;;;;;;5071461;28;20498;-69
2022/05/19 00:08:28;;;;;;;3.50;3.20;;;15.40;99.90;;;;;;5071175;28;20973;-69
2022/05/19 00:10:56;;;;;;;3.97;3.30;;;15.40;99.90;;;;;;5071249;28;20884;-70
2022/05/19 00:13:23;;;;;;;6.90;3.50;;;15.30;99.90;;;;;;5071475;28;20937;-69
2022/05/19 00:15:51;;;;;;;4.33;4.00;;;15.30;99.90;;;;;;5213013;22;20502;-72
2022/05/19 00:18:18;;;;;;;3.70;3.40;;;15.20;99.90;;;;;;5050717;28;20466;-72
2022/05/19 00:20:46;;;;;;;4.37;3.50;;;15.20;99.90;;;;;;5051502;28;20538;-71
2022/05/19 00:23:13;;;;;;;3.90;3.50;;;15.10;99.90;;;;;;5051035;28;21008;-72
2022/05/19 00:25:40;;;;;;;3.73;3.43;;;15.10;99.90;;;;;;5051446;28;20455;-72
2022/05/19 00:28:07;;;;;;;3.90;3.60;;;15.10;99.90;;;;;;5050506;28;20542;-72
2022/05/19 00:30:35;;;;;;;4.07;3.47;;;15.10;99.90;;;;;;5051138;28;20455;-72
2022/05/19 00:33:03;;;;;;;4.80;3.77;;;15.00;99.90;;;;;;5050844;28;20475;-72
2022/05/19 00:35:30;;;;;;;7.10;3.50;;;15.00;99.90;;;;;;5051101;28;20483;-71
2022/05/19 00:37:57;;;;;;;3.73;3.43;;;14.90;99.90;;;;;;5050741;28;20985;-72
2022/05/19 00:40:25;;;;;;;4.33;3.50;;;14.90;99.90;;;;;;5051160;28;20466;-72
2022/05/19 00:42:51;;;;;;;3.57;3.27;;;14.90;99.90;;;;;;5050883;28;20487;-72
2022/05/19 00:45:20;;;;;;;4.43;3.80;;;14.80;99.90;;;;;;5050697;28;20459;-73
2022/05/19 00:47:51;;;;;;;5.10;3.40;;;14.80;99.90;;;;;;5050971;28;20538;-72
2022/05/19 00:50:23;;;;;;;3.60;3.30;;;14.80;99.90;;;;;;5050275;28;20460;-73
2022/05/19 00:52:53;;;;;;;3.60;3.30;;;14.80;99.90;;;;;;5050716;28;20502;-73
2022/05/19 00:55:23;;;;;;;4.30;3.60;;;14.70;99.90;;;;;;5050765;28;20483;-72
2022/05/19 00:57:56;;;;;;;4.53;3.87;;;14.60;99.90;;;;;;5050398;28;20466;-72
2022/05/19 01:00:23;;;;;;;5.30;3.40;;;14.60;99.90;;;;;;5050179;28;20470;-73
2022/05/19 01:02:53;;;;;;;3.90;3.57;;;14.60;99.90;;;;;;5050495;28;20851;-72
2022/05/19 01:05:28;;;;;;;4.10;3.40;;;14.50;99.90;;;;;;5049924;28;20459;-72
2022/05/19 01:08:01;;;;;;;3.93;3.40;;;14.50;99.90;;;;;;5050137;28;20462;-72
2022/05/19 01:10:28;;;;;;;6.00;3.63;;;14.50;99.90;;;;;;5050825;28;20471;-72
2022/05/19 01:12:55;;;;;;;4.13;3.83;;;14.40;99.90;;;;;;5050345;28;20537;-72
2022/05/19 01:15:23;;;;;;;4.70;3.37;;;14.40;99.90;;;;;;5050364;28;20483;-72
2022/05/19 01:17:50;;;;;;;3.63;3.30;;;14.40;99.90;;;;;;5049977;28;20989;-73
2022/05/19 01:20:20;;;;;;;4.40;4.00;;;14.40;99.90;;;;;;5050070;28;20459;-72
2022/05/19 01:22:56;;;;;;;3.93;3.60;;;14.40;99.90;;;;;;5050157;28;20591;-71
2022/05/19 01:25:33;;;;;;;3.40;3.10;;;14.30;99.90;;;;;;5050534;28;20491;-72
2022/05/19 01:28:02;;;;;;;5.07;3.43;;;14.30;99.90;;;;;;5049722;28;20495;-72
2022/05/19 01:30:29;;;;;;;3.60;3.30;;;14.30;99.90;;;;;;5050193;28;20494;-72
2022/05/19 01:32:56;;;;;;;3.80;3.50;;;14.20;99.90;;;;;;5049988;28;20479;-72
2022/05/19 01:35:23;;;;;;;3.67;3.37;;;14.10;99.90;;;;;;5049997;28;20625;-72
2022/05/19 01:37:50;;;;;;;5.57;3.27;;;14.10;99.90;;;;;;5050201;28;20467;-72
2022/05/19 01:40:33;;;;;;;3.40;3.10;;;14.10;99.90;;;;;;5049655;28;20459;-72
2022/05/19 01:43:10;;;;;;;4.07;3.67;;;14.10;99.90;;;;;;5049956;28;20483;-72
2022/05/19 01:45:58;;;;;;;4.43;4.03;;;14.00;99.90;;;;;;5049999;28;20455;-72
2022/05/19 01:48:34;;;;;;;3.77;3.47;;;14.00;99.90;;;;;;5049771;28;20493;-72
2022/05/19 01:51:07;;;;;;;4.03;3.63;;;13.90;99.90;;;;;;5049770;28;20558;-72
2022/05/19 01:53:40;;;;;;;3.50;3.20;;;13.90;99.90;;;;;;5050261;28;20459;-71
2022/05/19 01:56:14;;;;;;;4.20;3.30;;;13.90;99.90;;;;;;5049895;28;21001;-72
2022/05/19 01:58:49;;;;;;;3.93;3.40;;;13.90;99.90;;;;;;5049292;28;20467;-72
2022/05/19 02:01:18;;;;;;;5.37;3.50;;;13.80;99.90;;;;;;5049959;28;20462;-72
2022/05/19 02:03:51;;;;;;;3.53;3.23;;;13.80;99.90;;;;;;5049655;28;20463;-73
2022/05/19 02:06:23;;;;;;;5.80;4.70;;;13.70;99.90;;;;;;5050019;28;20779;-72
2022/05/19 02:08:53;;;;;;;4.03;3.63;;;13.70;99.90;;;;;;5049248;28;20860;-72
2022/05/19 02:11:25;;;;;;;3.80;3.50;;;13.70;99.90;;;;;;5049999;28;20463;-72
2022/05/19 02:13:55;;;;;;;4.10;3.50;;;13.70;99.90;;;;;;5049462;28;20839;-72
2022/05/19 02:16:23;;;;;;;3.77;3.47;;;13.60;99.90;;;;;;5050136;28;20853;-72
2022/05/19 02:18:51;;;;;;;3.73;3.40;;;13.60;99.90;;;;;;5053149;28;20478;-72
2022/05/19 02:21:19;;;;;;;3.80;3.40;;;13.60;99.90;;;;;;5053285;28;20466;-73
2022/05/19 02:23:47;;;;;;;4.17;3.77;;;13.60;99.90;;;;;;5053716;28;20467;-72
2022/05/19 02:26:13;;;;;;;6.23;3.30;;;13.60;99.90;;;;;;5053580;28;20513;-72
2022/05/19 02:28:45;;;;;;;3.93;3.47;;;13.60;99.90;;;;;;5052914;28;20470;-73
2022/05/19 02:31:13;;;;;;;3.37;3.07;;;13.60;99.90;;;;;;5053356;28;20458;-72
2022/05/19 02:33:40;;;;;;;5.13;3.57;;;13.50;99.90;;;;;;5053469;28;20879;-73
2022/05/19 02:36:10;;;;;;;5.07;3.73;;;13.50;99.90;;;;;;5053145;28;20479;-72
2022/05/19 02:38:37;;;;;;;3.67;3.17;;;13.50;99.90;;;;;;5052920;28;20482;-72
2022/05/19 02:41:04;;;;;;;3.40;3.10;;;13.40;99.90;;;;;;5053145;28;20455;-73
2022/05/19 02:43:31;;;;;;;4.33;3.47;;;13.40;99.90;;;;;;5052463;28;20491;-72
2022/05/19 02:45:58;;;;;;;3.90;3.40;;;13.40;99.90;;;;;;5053002;28;20463;-73
2022/05/19 02:48:26;;;;;;;4.10;3.80;;;13.40;99.90;;;;;;5052372;28;21202;-73
2022/05/19 02:50:53;;;;;;;3.57;3.27;;;13.40;99.90;;;;;;5053084;28;20464;-73
2022/05/19 02:53:20;;;;;;;4.73;3.93;;;13.30;99.90;;;;;;5052655;28;20482;-73
2022/05/19 02:55:47;;;;;;;4.20;3.70;;;13.30;99.90;;;;;;5052843;28;20566;-72
2022/05/19 02:58:15;;;;;;;3.70;3.23;;;13.30;99.90;;;;;;5052259;28;21189;-73
2022/05/19 03:00:44;;;;;;;3.90;3.50;;;13.30;99.90;;;;;;5052752;28;20467;-73
2022/05/19 03:03:11;;;;;;;3.83;3.53;;;13.20;99.90;;;;;;5052579;28;21024;-74
2022/05/19 03:05:39;;;;;;;3.97;3.67;;;13.20;99.90;;;;;;5052711;28;20459;-73
2022/05/19 03:08:07;;;;;;;3.70;3.40;;;13.20;99.90;;;;;;5051890;28;20463;-72
2022/05/19 03:10:35;;;;;;;4.13;3.73;;;13.20;99.90;;;;;;5052466;28;20463;-73
2022/05/19 03:13:02;;;;;;;5.70;4.07;;;13.10;99.90;;;;;;5052468;28;20827;-72
2022/05/19 03:15:29;;;;;;;4.80;4.40;;;13.10;99.90;;;;;;5052635;28;20487;-72
2022/05/19 03:17:56;;;;;;;4.60;4.20;;;13.10;99.90;;;;;;5052079;28;20467;-73
2022/05/19 03:20:23;;;;;;;4.63;4.03;;;13.10;99.90;;;;;;5052317;28;20460;-72
2022/05/19 03:22:51;;;;;;;9.63;3.77;;;13.00;99.90;;;;;;5052027;28;20850;-73
2022/05/19 03:25:18;;;;;;;3.80;3.50;;;13.00;99.90;;;;;;5052363;28;20470;-72
2022/05/19 03:27:45;;;;;;;3.80;3.47;;;13.00;99.90;;;;;;5051801;28;20966;-72
2022/05/19 03:30:15;;;;;;;3.73;3.40;;;12.90;99.90;;;;;;5051114;28;20460;-72
2022/05/19 03:32:42;;;;;;;3.80;3.50;;;12.90;99.90;;;;;;5052207;28;20490;-72
2022/05/19 03:35:10;;;;;;;4.33;3.97;;;12.90;99.90;;;;;;5020683;28;20457;-72
2022/05/19 03:37:37;;;;;;;3.60;3.30;;;13.00;99.90;;;;;;5011761;28;20845;-72
2022/05/19 03:40:06;;;;;;;5.83;3.83;;;12.90;99.90;;;;;;5021296;28;20967;-72
2022/05/19 03:42:33;;;;;;;4.80;3.30;;;12.90;99.90;;;;;;5012826;28;20976;-71
2022/05/19 03:45:00;;;;;;;4.10;3.07;;;12.90;99.90;;;;;;5029229;28;20452;-72
2022/05/19 03:47:27;;;;;;;3.67;3.37;;;12.90;99.90;;;;;;5017294;28;20858;-72
2022/05/19 03:49:53;;;;;;;4.03;3.70;;;12.90;99.90;;;;;;5010860;28;20961;-72
2022/05/19 03:52:20;;;;;;;4.03;3.57;;;12.90;99.90;;;;;;5011386;28;20477;-72
2022/05/19 03:54:47;;;;;;;4.35;3.53;;;12.80;99.90;;;;;;5021946;28;20978;-72
2022/05/19 03:57:17;;;;;;;4.60;3.30;;;12.80;99.90;;;;;;5027505;28;20218;-71
2022/05/19 03:59:44;;;;;;;3.70;3.40;;;12.80;99.90;;;;;;5022785;28;20461;-72
2022/05/19 04:02:11;;;;;;;4.07;3.70;;;12.80;99.90;;;;;;5027704;28;20476;-72
2022/05/19 04:04:37;;;;;;;4.90;4.40;;;12.80;99.90;;;;;;5030978;28;20946;-71
2022/05/19 04:07:04;;;;;;;4.23;3.37;;;12.80;99.90;;;;;;5030668;28;20906;-72
2022/05/19 04:09:32;;;;;;;3.47;3.17;;;12.80;99.90;;;;;;5030381;28;20461;-72
2022/05/19 04:11:59;;;;;;;3.80;3.50;;;12.80;99.90;;;;;;5031418;28;20516;-72
2022/05/19 04:14:28;;;;;;;4.07;3.63;;;12.90;99.90;;;;;;5031107;28;20479;-73
2022/05/19 04:16:54;;;;;;;3.63;3.30;;;12.90;99.90;;;;;;5031317;28;20571;-75
2022/05/19 04:19:21;;;;;;;3.77;3.33;;;12.90;99.90;;;;;;5030953;28;20824;-74
2022/05/19 04:21:48;;;;;;;3.83;3.53;;;13.00;99.90;;;;;;5031439;28;20857;-73
2022/05/19 04:24:15;;;;;;;3.70;3.40;;;13.00;99.90;;;;;;5031213;28;20468;-73
2022/05/19 04:26:41;;;;;;;3.50;3.20;;;13.00;99.90;;;;;;5031472;28;20452;-73
2022/05/19 04:29:08;;;;;;;3.30;3.00;;;13.00;99.90;;;;;;5030348;28;20460;-73
2022/05/19 04:31:36;;;;;;;3.93;3.07;;;13.00;99.90;;;;;;5031547;28;20516;-73
2022/05/19 04:34:05;;;;;;;3.60;3.30;;;13.00;99.90;;;;;;5031528;28;20463;-73
2022/05/19 04:36:31;;;;;;;3.67;3.37;;;13.10;99.90;;;;;;5031689;28;20873;-73
2022/05/19 04:38:58;;;;;;;3.77;3.40;;;13.10;99.90;;;;;;5030425;28;20811;-73
2022/05/19 04:41:25;;;;;;;5.80;3.70;;;13.20;99.90;;;;;;5030971;28;20518;-73
2022/05/19 04:43:52;;;;;;;3.90;3.50;;;13.20;99.90;;;;;;5031493;28;20840;-73
2022/05/19 04:46:19;;;;;;;4.60;3.20;;;13.30;99.90;;;;;;5031691;28;20467;-73
2022/05/19 04:48:47;;;;;;;4.20;3.30;;;13.40;99.90;;;;;;5030791;28;20483;-72
2022/05/19 04:51:14;;;;;;;4.30;3.60;;;13.50;99.90;;;;;;5030847;28;20475;-72
2022/05/19 04:53:41;;;;;;;3.37;3.07;;;13.60;99.90;;;;;;5030692;28;20468;-72
2022/05/19 04:56:08;;;;;;;3.60;3.37;;;13.70;99.90;;;;;;5030656;28;20480;-72
2022/05/19 04:58:35;;;;;;;3.63;2.80;;;13.70;99.90;;;;;;5029880;28;20469;-72
2022/05/19 05:01:01;;;;;;;3.80;3.50;;;13.80;99.90;;;;;;5030400;28;20468;-72
2022/05/19 05:03:28;;;;;;;3.60;3.30;;;13.90;99.90;;;;;;5030497;28;20492;-72
2022/05/19 05:05:56;;;;;;;4.33;3.63;;;14.00;99.90;;;;;;5030650;28;20463;-72
2022/05/19 05:08:23;;;;;;;4.30;3.80;;;14.10;99.90;;;;;;5029765;28;20968;-72
2022/05/19 05:10:49;;;;;;;3.67;3.37;;;14.20;99.90;;;;;;5030264;28;20467;-72
2022/05/19 05:13:17;;;;;;;4.30;3.23;;;14.30;99.90;;;;;;5030425;28;20946;-72
2022/05/19 05:15:44;;;;;;;3.93;3.23;;;14.40;99.90;;;;;;5030232;28;20940;-72
2022/05/19 05:18:12;;;;;;;4.80;4.27;;;14.50;99.90;;;;;;5029569;28;20496;-72
2022/05/19 05:20:42;;;;;;;4.57;3.50;;;14.60;99.90;;;;;;5030220;28;20464;-72
2022/05/19 05:23:11;;;;;;;3.97;3.67;;;14.80;99.90;;;;;;5030011;28;20502;-72
2022/05/19 05:25:37;;;;;;;7.00;3.67;;;14.90;99.90;;;;;;5030150;28;20464;-72
2022/05/19 05:28:04;;;;;;;4.07;3.43;;;15.00;99.90;;;;;;5029467;28;20464;-72
2022/05/19 05:30:31;;;;;;;3.80;3.50;;;15.10;99.90;;;;;;5030117;28;20976;-72
2022/05/19 05:33:07;;;;;;;4.60;3.60;;;15.30;99.90;;;;;;5029939;28;20515;-72
2022/05/19 05:35:34;;;;;;;4.17;3.20;;;15.40;99.90;;;;;;5030233;28;20482;-72
2022/05/19 05:38:00;;;;;;;3.80;3.37;;;15.60;99.90;;;;;;5029190;28;20488;-72
2022/05/19 05:40:29;;;;;;;3.60;3.00;;;15.70;99.90;;;;;;5030449;28;20464;-72
2022/05/19 05:42:56;;;;;;;3.30;3.00;;;15.80;99.90;;;;;;5029681;28;20484;-72
2022/05/19 05:45:23;;;;;;;3.47;3.17;;;15.90;99.90;;;;;;5030171;28;20460;-72
2022/05/19 05:47:49;;;;;;;4.23;3.83;;;16.10;99.90;;;;;;5029866;28;20863;-72
2022/05/19 05:50:16;;;;;;;3.23;2.93;;;16.20;99.90;;;;;;5029574;28;20464;-72
2022/05/19 05:52:43;;;;;;;8.40;3.83;;;16.30;99.90;;;;;;5023861;28;20487;-72
2022/05/19 05:55:10;;;;;;;5.27;3.23;;;16.40;99.90;;;;;;5024437;28;20467;-72
2022/05/19 05:57:38;;;;;;;3.27;3.00;;;16.50;99.90;;;;;;5025848;28;20475;-72
2022/05/19 06:00:07;;;;;;;3.40;3.10;;;16.70;99.90;;;;;;5033310;28;20562;-72
2022/05/19 06:02:34;;;;;;;4.33;3.57;;;16.80;99.90;;;;;;5033933;28;20488;-72
2022/05/19 06:05:00;;;;;;;3.80;3.40;;;16.90;99.90;;;;;;5033463;28;20470;-72
2022/05/19 06:07:27;;;;;;;3.93;3.33;;;17.00;99.90;;;;;;5033749;28;20467;-72
2022/05/19 06:09:54;;;;;;;4.20;3.20;;;17.10;99.90;;;;;;5032824;28;20554;-72
2022/05/19 06:12:21;;;;;;;3.97;3.40;;;17.30;99.90;;;;;;5033774;28;20513;-72
2022/05/19 06:14:49;;;;;;;4.80;3.03;;;17.30;99.90;;;;;;5101610;22;20461;-72
2022/05/19 06:17:16;;;;;;;3.50;2.93;;;17.50;99.90;;;;;;5094196;28;21014;-72
2022/05/19 06:19:43;;;;;;;3.70;3.17;;;17.60;99.90;;;;;;5093681;28;20964;-71
2022/05/19 06:22:10;;;;;;;3.60;3.10;;;17.70;99.90;;;;;;5094193;28;20482;-72
2022/05/19 06:24:37;;;;;;;3.50;3.10;;;17.80;99.90;;;;;;5093829;28;20457;-72
2022/05/19 06:27:04;;;;;;;3.57;3.30;;;17.80;99.90;;;;;;5094009;28;20457;-72
2022/05/19 06:29:31;;;;;;;3.90;3.60;;;17.90;99.90;;;;;;5093628;28;20470;-71
2022/05/19 06:31:59;;;;;;;3.70;3.40;;;18.00;99.90;;;;;;5093898;28;20477;-72
2022/05/19 06:34:26;;;;;;;5.13;3.13;;;18.10;99.90;;;;;;5093912;28;20458;-72
2022/05/19 06:36:53;;;;;;;4.93;3.20;;;18.20;99.90;;;;;;5093603;28;20492;-73
2022/05/19 06:39:19;;;;;;;3.30;3.10;;;18.40;99.90;;;;;;5093478;28;20475;-72
2022/05/19 06:42:02;;;;;;;3.70;3.10;;;18.50;99.90;;;;;;5093742;28;20473;-72
2022/05/19 06:44:30;;;;;;;4.50;3.53;;;18.60;99.90;;;;;;5093878;28;20839;-71
2022/05/19 06:46:57;;;;;;;3.67;3.30;;;18.70;99.90;;;;;;5093773;28;20906;-72
2022/05/19 06:49:25;;;;;;;3.17;2.70;;;18.80;99.90;;;;;;5093182;28;20461;-72
2022/05/19 06:51:52;;;;;;;3.50;3.20;;;18.90;99.90;;;;;;5093567;28;20486;-72
2022/05/19 06:54:20;;;;;;;4.80;2.87;;;19.00;99.90;;;;;;5093610;28;20849;-71
2022/05/19 06:56:47;;;;;;;3.13;2.83;;;19.10;99.90;;;;;;5093259;28;21003;-72
2022/05/19 06:59:15;;;;;;;3.57;3.27;;;19.20;99.90;;;;;;5092879;28;20466;-71
2022/05/19 07:01:42;;;;;;;4.20;3.30;;;19.30;99.90;;;;;;5093265;28;20567;-71
2022/05/19 07:04:09;;;;;;;3.90;3.50;;;19.40;99.90;;;;;;5091878;28;20461;-71
2022/05/19 07:06:37;;;;;;;3.53;3.23;;;19.50;99.90;;;;;;5093172;28;20461;-71
2022/05/19 07:09:04;;;;;;;4.13;3.73;;;19.60;99.90;;;;;;5092624;28;20968;-71
2022/05/19 07:11:31;;;;;;;3.30;3.00;;;19.70;99.90;;;;;;5092877;28;20754;-71
2022/05/19 07:14:00;;;;;;;3.30;3.00;;;19.80;99.90;;;;;;5093004;28;20466;-72
2022/05/19 07:16:28;;;;;;;3.53;3.23;;;19.90;99.90;;;;;;5092525;28;20952;-71
2022/05/19 07:20:43;;;;;;;3.80;3.10;;;19.90;99.90;;;;;;5092529;28;20458;-71
2022/05/19 07:21:44;;;;;;;3.37;3.17;;;20.00;99.90;;;;;;5092347;28;20554;-71
2022/05/19 07:24:14;;;;;;;6.33;3.53;;;20.10;99.90;;;;;;5092957;28;20556;-72
2022/05/19 07:26:41;;;;;;;3.90;3.50;;;20.30;99.90;;;;;;5092658;28;20466;-71
2022/05/19 07:29:08;;;;;;;3.57;3.13;;;20.40;99.90;;;;;;5092577;28;20458;-71
2022/05/19 07:31:35;;;;;;;3.00;2.80;;;20.60;99.90;;;;;;5092495;28;21025;-72
2022/05/19 07:34:01;;;;;;;3.70;2.90;;;20.70;99.90;;;;;;5092754;28;20453;-71
2022/05/19 07:36:28;;;;;;;3.37;3.10;;;20.70;99.90;;;;;;5092461;28;20468;-71
2022/05/19 07:38:59;;;;;;;3.50;3.10;;;20.80;99.90;;;;;;5092110;28;20504;-71
2022/05/19 07:41:26;;;;;;;3.00;2.80;;;20.90;99.90;;;;;;5092318;28;20492;-71
2022/05/19 07:43:53;;;;;;;4.93;3.23;;;21.00;99.90;;;;;;5092598;28;20959;-71
2022/05/19 07:46:20;;;;;;;4.23;3.10;;;21.00;99.90;;;;;;5092470;28;20466;-72
2022/05/19 07:48:47;;;;;;;3.20;2.97;;;21.10;99.90;;;;;;5091738;28;20967;-71
2022/05/19 07:51:14;;;;;;;3.40;3.10;;;21.20;99.90;;;;;;5092246;28;20457;-71
2022/05/19 07:53:41;;;;;;;3.70;3.40;;;21.30;99.90;;;;;;5091667;28;20496;-70
2022/05/19 07:56:09;;;;;;;3.50;3.20;;;21.40;99.90;;;;;;5092573;28;20457;-71
2022/05/19 07:58:35;;;;;;;3.40;3.07;;;21.50;99.90;;;;;;5091140;28;20484;-71
2022/05/19 08:01:02;;;;;;;4.20;3.40;;;21.60;99.90;;;;;;5092525;28;20458;-71
2022/05/19 08:03:29;;;;;;;3.80;3.23;;;21.70;99.90;;;;;;5091754;28;20482;-72
2022/05/19 08:05:56;;;;;;;3.27;2.97;;;21.80;99.90;;;;;;5092220;28;20461;-72
2022/05/19 08:08:23;;;;;;;3.57;3.27;;;21.90;99.90;;;;;;5091106;28;20980;-72
2022/05/19 08:10:50;;;;;;;3.70;3.40;;;22.00;99.90;;;;;;5092014;28;20835;-72
2022/05/19 08:16:02;;;;;;;3.63;3.30;;;22.20;99.90;;;;;;5091648;28;20971;-71
2022/05/19 08:18:28;;;;;;;3.50;3.20;;;22.30;99.90;;;;;;5090843;28;21004;-72
2022/05/19 08:20:58;;;;;;;3.53;3.23;;;22.40;99.90;;;;;;5091939;28;20458;-72
2022/05/19 08:23:27;;;;;;;6.33;3.50;;;22.60;99.90;;;;;;5091572;28;20509;-72
2022/05/19 08:25:55;;;;;;;4.70;3.20;;;22.80;99.90;;;;;;5091860;28;20465;-73
2022/05/19 08:28:29;;;;;;;4.67;3.20;;;22.90;99.90;;;;;;5091426;28;20474;-72
2022/05/19 08:30:57;;;;;;;4.47;3.77;;;23.10;99.90;;;;;;5092045;28;20465;-72
2022/05/19 08:33:24;;;;;;;3.37;3.07;;;23.30;99.90;;;;;;5091581;28;20478;-72
2022/05/19 08:35:51;;;;;;;3.50;3.20;;;23.40;99.90;;;;;;5091706;28;20462;-72
2022/05/19 08:38:18;;;;;;;3.20;2.90;;;23.60;99.90;;;;;;5091236;28;20482;-71
2022/05/19 08:40:49;;;;;;;3.87;2.90;;;23.70;99.90;;;;;;5091556;28;20466;-71
2022/05/19 08:43:19;;;;;;;4.53;4.00;;;23.90;99.90;;;;;;5091603;28;20484;-71
2022/05/19 08:45:51;;;;;;;5.40;3.57;;;24.20;99.90;;;;;;5091534;28;20465;-71
2022/05/19 08:48:21;;;;;;;4.27;3.87;;;24.40;99.30;;;;;;5091178;28;20457;-72
2022/05/19 08:50:52;;;;;;;4.73;3.10;;;24.50;98.40;;;;;;5091534;28;20473;-71
2022/05/19 08:53:19;;;;;;;3.43;3.13;;;24.60;98.60;;;;;;5091198;28;20531;-72
2022/05/19 08:55:51;;;;;;;6.73;3.30;;;24.70;99.60;;;;;;5091331;28;20446;-72
2022/05/19 08:58:33;;;;;;;3.83;3.40;;;25.00;99.90;;;;;;5090766;28;20504;-71
2022/05/19 09:01:06;;;;;;;4.80;3.40;;;25.40;99.90;;;;;;5091931;28;20949;-72
2022/05/19 09:03:38;;;;;;;4.30;3.87;;;25.60;99.90;;;;;;5091017;28;20478;-71
2022/05/19 09:06:22;;;;;;;4.00;3.30;;;25.90;97.60;;;;;;5091353;28;20485;-71
2022/05/19 09:09:08;;;;;;;3.43;2.70;;;26.10;98.00;;;;;;5090556;28;20964;-72
2022/05/19 09:11:43;;;;;;;4.73;3.30;;;26.20;99.60;;;;;;5091060;28;20477;-72
2022/05/19 09:14:19;;;;;;;4.10;2.87;;;26.40;97.10;;;;;;5091251;28;20461;-72
2022/05/19 09:16:49;;;;;;;3.83;3.40;;;26.50;96.60;;;;;;5091229;28;20474;-71
2022/05/19 09:19:22;;;;;;;3.73;3.40;;;26.80;96.90;;;;;;5090683;28;20494;-72
2022/05/19 09:22:08;;;;;;;3.23;2.97;;;27.10;97.70;;;;;;5091097;28;20493;-71
2022/05/19 09:24:36;;;;;;;4.20;3.50;;;27.50;98.20;;;;;;5090688;28;20972;-71
2022/05/19 09:27:03;;;;;;;7.07;3.20;;;27.90;96.80;;;;;;5090281;28;20848;-71
2022/05/19 09:29:34;;;;;;;3.37;2.97;;;28.40;97.50;;;;;;5090518;28;20942;-72
2022/05/19 09:32:13;;;;;;;4.77;3.10;;;28.80;96.70;;;;;;5090721;28;20487;-72
2022/05/19 09:34:43;;;;;;;5.43;3.30;;;28.80;94.60;;;;;;5090754;28;20472;-71
2022/05/19 09:37:11;;;;;;;3.50;3.20;;;28.70;94.90;;;;;;5090706;28;20464;-71
2022/05/19 09:39:48;;;;;;;3.80;3.33;;;28.80;95.30;;;;;;5090201;28;20980;-71
2022/05/19 09:42:18;;;;;;;4.33;3.30;;;29.00;95.30;;;;;;5090934;28;20847;-71
2022/05/19 09:44:50;;;;;;;3.63;3.30;;;29.00;93.70;;;;;;5090916;28;20455;-71
2022/05/19 09:47:24;;;;;;;3.87;3.47;;;28.90;94.00;;;;;;5090673;28;20462;-71
2022/05/19 09:49:55;;;;;;;5.13;3.13;;;29.00;94.50;;;;;;5090209;28;20472;-71
2022/05/19 09:52:27;;;;;;;3.90;3.60;;;29.00;93.60;;;;;;5090275;28;20487;-71
2022/05/19 09:54:57;;;;;;;4.20;3.83;;;29.00;94.60;;;;;;5090795;28;20466;-71
2022/05/19 09:57:33;;;;;;;3.60;3.30;;;29.10;95.60;;;;;;5090447;28;20514;-72
2022/05/19 10:00:04;;;;;;;4.23;3.30;;;29.20;95.50;;;;;;5090549;28;20453;-72
2022/05/19 10:02:38;;;;;;;5.00;3.97;;;29.40;95.40;;;;;;5090458;28;21018;-72
2022/05/19 10:05:20;;;;;;;3.30;3.00;;;29.50;95.70;;;;;;5090753;28;20457;-72
2022/05/19 10:07:49;;;;;;;4.60;3.43;;;29.60;95.60;;;;;;5090448;28;20902;-72
2022/05/19 10:10:24;;;;;;;6.00;3.53;;;29.70;94.10;;;;;;5090239;28;20464;-72
2022/05/19 10:12:50;;;;;;;3.63;3.30;;;29.80;96.20;;;;;;5090527;28;20486;-72
2022/05/19 10:15:20;;;;;;;3.50;3.07;;;30.00;94.30;;;;;;5090407;28;20556;-72
2022/05/19 10:18:04;;;;;;;3.93;3.60;;;30.00;94.20;;;;;;5081586;28;20584;-72
2022/05/19 10:20:37;;;;;;;4.43;4.03;;;30.10;94.60;;;;;;5068445;28;20462;-73
2022/05/19 10:23:14;;;;;;;4.37;3.40;;;29.70;93.50;;;;;;5069278;28;20490;-72
2022/05/19 10:26:01;;;;;;;4.30;3.57;;;29.50;94.10;;;;;;5066799;28;22537;-71
2022/05/19 10:31:38;;;;;;;5.23;3.57;;;29.50;94.00;;;;;;5069093;28;20544;-72
2022/05/19 10:34:33;;;;;;;4.23;3.83;;;29.90;94.20;;;;;;5069093;28;20457;-72
2022/05/19 10:37:07;;;;;;;8.03;4.20;;;30.30;95.10;;;;;;5068941;28;20456;-72
2022/05/19 10:40:03;;;;;;;5.53;3.63;;;30.50;94.10;;;;;;5071679;28;20584;-72
2022/05/19 10:42:41;;;;;;;4.20;3.57;;;30.60;93.50;;;;;;5072363;28;20508;-73
2022/05/19 10:45:17;;;;;;;4.07;3.77;;;30.70;93.70;;;;;;5071572;28;20455;-72
2022/05/19 10:47:57;;;;;;;5.10;3.77;;;30.80;93.00;;;;;;5072555;28;20451;-72
2022/05/19 10:50:30;;;;;;;4.93;3.80;;;30.70;93.80;;;;;;5072426;28;20457;-72
2022/05/19 10:53:13;;;;;;;3.87;3.47;;;30.70;92.30;;;;;;5072757;28;20980;-72
2022/05/19 10:55:51;;;;;;;4.00;3.57;;;30.80;94.50;;;;;;5072308;28;20455;-72
2022/05/19 10:58:42;;;;;;;4.70;3.53;;;31.20;93.90;;;;;;5072386;28;20486;-72
2022/05/19 11:01:22;;;;;;;4.00;3.70;;;31.50;93.90;;;;;;5072457;28;20486;-72
2022/05/19 11:04:04;;;;;;;5.10;3.00;;;31.60;93.60;;;;;;5072249;28;20468;-72
2022/05/19 11:06:49;;;;;;;3.53;3.23;;;31.80;93.20;;;;;;5072431;28;20469;-72
2022/05/19 11:09:26;;;;;;;4.67;3.20;;;31.60;93.20;;;;;;5072122;28;20465;-71
2022/05/19 11:12:08;;;;;;;3.90;3.50;;;31.10;93.40;;;;;;5072521;28;20827;-72
2022/05/19 11:15:02;;;;;;;3.87;3.43;;;30.80;92.30;;;;;;5072063;28;20465;-72
2022/05/19 11:17:40;;;;;;;4.00;3.70;;;30.60;93.80;;;;;;5092225;28;20606;-72
2022/05/19 11:20:13;;;;;;;7.40;4.10;;;30.30;94.10;;;;;;5092205;28;20459;-72
2022/05/19 11:22:43;;;;;;;4.40;4.00;;;30.00;94.40;;;;;;5092146;28;20509;-72
2022/05/19 11:28:03;;;;;;;3.77;3.47;;;29.80;94.70;;;;;;5092042;28;20435;-72
2022/05/19 11:30:35;;;;;;;4.17;3.80;;;29.90;94.60;;;;;;5091763;28;20455;-71
2022/05/19 11:33:05;;;;;;;4.50;3.90;;;30.00;95.80;;;;;;5091887;28;20509;-71
2022/05/19 11:35:39;;;;;;;6.63;3.50;;;30.30;96.40;;;;;;5090702;28;20458;-72
2022/05/19 11:38:18;;;;;;;3.93;3.63;;;30.60;95.50;;;;;;5090732;28;20488;-72
2022/05/19 11:40:49;;;;;;;3.97;3.63;;;30.70;96.20;;;;;;5091080;28;20457;-72
2022/05/19 11:43:22;;;;;;;4.13;3.83;;;31.00;96.40;;;;;;5091282;28;20482;-72
2022/05/19 11:45:53;;;;;;;4.23;3.83;;;31.10;95.80;;;;;;5091308;28;20461;-72
2022/05/19 11:56:59;;;;;;;5.80;3.60;;;30.80;93.10;;;;;;5091399;28;20437;-72
2022/05/19 11:59:26;;;;;;;4.13;3.73;;;30.30;93.40;;;;;;5090240;28;20487;-72
2022/05/19 12:01:54;;;;;;;4.77;4.37;;;29.90;94.20;;;;;;5091003;28;20470;-72
2022/05/19 12:04:27;;;;;;;4.43;4.03;;;29.60;93.70;;;;;;5090627;28;20465;-72
2022/05/19 12:07:01;;;;;;;4.80;3.87;;;29.40;94.40;;;;;;5091425;28;20458;-72
2022/05/19 12:09:32;;;;;;;5.03;4.20;;;29.30;95.10;;;;;;5090254;28;20828;-72
2022/05/19 12:12:02;;;;;;;4.13;3.73;;;29.60;94.30;;;;;;5090776;28;20985;-72
2022/05/19 12:14:40;;;;;;;5.03;3.50;;;30.00;94.60;;;;;;5090493;28;20458;-73
2022/05/19 12:17:32;;;;;;;4.37;3.50;;;30.50;94.70;;;;;;5090621;28;20454;-72
2022/05/19 12:20:03;;;;;;;4.80;3.87;;;31.00;96.20;;;;;;5090279;28;20495;-72
2022/05/19 12:22:36;;;;;;;8.37;4.40;;;31.10;94.70;;;;;;5090302;28;20483;-72
2022/05/19 12:25:14;;;;;;;4.30;4.00;;;31.30;94.00;;;;;;5090457;28;20500;-72
2022/05/19 12:27:53;;;;;;;4.90;4.10;;;31.50;93.30;;;;;;5090314;28;20471;-72
2022/05/19 12:33:23;;;;;;;3.87;3.47;;;31.40;93.90;;;;;;5090523;28;20463;-73
2022/05/19 12:35:52;;;;;;;4.70;3.37;;;31.50;91.10;;;;;;5090770;28;20526;-73
2022/05/19 12:38:31;;;;;;;6.80;3.40;;;31.30;87.80;;;;;;5089918;28;20458;-73
2022/05/19 12:41:02;;;;;;;3.60;3.20;;;31.20;86.60;;;;;;5090225;28;20495;-72
2022/05/19 12:43:40;;;;;;;3.77;3.13;;;30.90;84.80;;;;;;5090104;28;20487;-73
2022/05/19 12:46:10;;;;;;;3.53;3.23;;;30.90;87.30;;;;;;5090345;28;20468;-73
2022/05/19 12:49:00;;;;;;;4.23;3.60;;;31.00;90.50;;;;;;5090009;28;20479;-72
2022/05/19 12:51:48;;;;;;;6.87;3.50;;;31.20;91.50;;;;;;5089273;28;20467;-72
2022/05/19 12:54:16;;;;;;;7.10;3.90;;;31.60;87.10;;;;;;5090143;28;20465;-72
2022/05/19 12:57:25;;;;;;;4.07;3.20;;;31.70;87.90;;;;;;5089888;28;20522;-73
2022/05/19 13:00:08;;;;;;;3.93;3.33;;;31.80;89.50;;;;;;5089443;28;20483;-70
2022/05/19 13:02:41;;;;;;;4.10;3.20;;;32.00;86.80;;;;;;5089800;28;20513;-72
2022/05/19 13:05:18;;;;;;;3.30;3.00;;;32.00;86.40;;;;;;5089890;28;20470;-72
2022/05/19 13:07:50;;;;;;;4.83;3.40;;;31.80;81.60;;;;;;5089557;28;20499;-72
2022/05/19 13:10:20;;;;;;;6.40;3.30;;;31.40;81.30;;;;;;5089933;28;20487;-72
2022/05/19 13:12:52;;;;;;;3.87;3.30;;;30.90;83.20;;;;;;5089636;28;20484;-72
2022/05/19 13:15:27;;;;;;;3.60;3.30;;;30.80;83.20;;;;;;5089627;28;20496;-72
2022/05/19 13:17:55;;;;;;;3.90;3.00;;;30.70;82.30;;;;;;5089798;28;20460;-72
2022/05/19 13:20:26;;;;;;;7.77;3.63;;;30.60;80.80;;;;;;5089714;28;20864;-72
2022/05/19 13:22:58;;;;;;;4.13;3.37;;;30.80;83.00;;;;;;5089728;28;20476;-73
2022/05/19 13:25:25;;;;;;;4.13;2.90;;;31.00;87.10;;;;;;5089841;28;20458;-72